Time;durP1;ratioP1;P1;durP2;ratioP2;P2;SDS_P1;SDS_P2;PMS_P1;PMS_P2;Temp;Humidity;BMP_temperature;BMP_pressure;BME280_temperature;BME280_humidity;BME280_pressure;Samples;Min_cycle;Max_cycle;Signal;HPM_P1;HPM_P2
2023/11/23 00:01:27;;;;;;;5.03;3.20;;;;;;;8.26;54.79;99720.75;5093994;28;20016;-48
2023/11/23 00:03:52;;;;;;;6.63;3.75;;;;;;;8.23;55.25;99721.06;5093981;28;20085;-48
2023/11/23 00:06:18;;;;;;;5.00;3.72;;;;;;;8.32;55.48;99716.66;5093906;28;20021;-49
2023/11/23 00:08:44;;;;;;;4.82;3.90;;;;;;;8.47;54.77;99720.34;5093920;28;20016;-49
2023/11/23 00:11:10;;;;;;;10.13;6.47;;;;;;;8.52;54.72;99712.00;5093815;28;20047;-49
2023/11/23 00:13:36;;;;;;;13.63;7.25;;;;;;;8.67;54.85;99709.56;5093881;28;20450;-49
2023/11/23 00:16:02;;;;;;;16.40;14.23;;;;;;;8.87;54.48;99713.47;5093647;28;20028;-49
2023/11/23 00:18:28;;;;;;;10.07;5.88;;;;;;;8.86;53.76;99714.47;5093387;28;20103;-49
2023/11/23 00:20:55;;;;;;;5.93;4.38;;;;;;;8.78;52.82;99717.09;5093690;28;20024;-48
2023/11/23 00:23:21;;;;;;;8.57;4.50;;;;;;;8.67;53.77;99722.63;5093227;28;20501;-49
2023/11/23 00:25:47;;;;;;;5.53;3.60;;;;;;;8.62;53.86;99733.59;5093336;28;20066;-49
2023/11/23 00:28:12;;;;;;;5.80;4.90;;;;;;;8.69;53.93;99728.53;5075343;28;20020;-49
2023/11/23 00:30:38;;;;;;;5.70;4.05;;;;;;;8.83;53.43;99732.31;5093479;28;20016;-49
2023/11/23 00:33:04;;;;;;;7.15;4.10;;;;;;;8.77;53.13;99736.38;5093360;28;20028;-49
2023/11/23 00:35:29;;;;;;;6.30;4.43;;;;;;;8.72;53.27;99739.50;5091962;28;20132;-49
2023/11/23 00:37:55;;;;;;;7.68;4.00;;;;;;;8.77;53.67;99737.22;5092001;28;20035;-49
2023/11/23 00:40:21;;;;;;;10.73;5.80;;;;;;;8.91;53.29;99733.09;5093253;28;20019;-49
2023/11/23 00:42:47;;;;;;;5.78;3.50;;;;;;;8.79;52.75;99737.03;5091940;28;20032;-48
2023/11/23 00:45:14;;;;;;;10.23;3.90;;;;;;;8.58;53.59;99727.88;5093124;28;20020;-48
2023/11/23 00:47:41;;;;;;;5.88;4.35;;;;;;;8.60;53.69;99733.75;5091852;28;20375;-49
2023/11/23 00:50:08;;;;;;;7.25;6.43;;;;;;;8.51;53.23;99729.50;5093038;28;20047;-49
2023/11/23 00:52:34;;;;;;;7.35;4.38;;;;;;;8.40;53.77;99732.38;5091673;28;20027;-49
2023/11/23 00:55:04;;;;;;;8.50;5.35;;;;;;;8.28;53.46;99736.28;5092898;28;20023;-49
2023/11/23 00:57:32;;;;;;;8.35;4.65;;;;;;;8.20;54.00;99744.91;5092874;28;20032;-49
2023/11/23 01:00:00;;;;;;;7.95;4.40;;;;;;;8.18;54.46;99739.84;5092807;28;20069;-49
2023/11/23 01:02:27;;;;;;;6.63;4.55;;;;;;;8.28;54.28;99737.09;5091590;28;20035;-49
2023/11/23 01:04:53;;;;;;;9.88;6.15;;;;;;;8.35;54.40;99750.34;5092839;28;20446;-48
2023/11/23 01:07:18;;;;;;;7.75;6.35;;;;;;;8.40;53.59;99742.84;5091416;28;20059;-48
2023/11/23 01:09:44;;;;;;;7.85;4.57;;;;;;;8.07;53.19;99750.59;5092869;28;20020;-49
2023/11/23 01:12:10;;;;;;;5.85;4.28;;;;;;;7.72;53.73;99762.84;5092664;28;20028;-48
2023/11/23 01:14:36;;;;;;;7.97;4.07;;;;;;;7.54;54.77;99754.25;5092538;28;20039;-48
2023/11/23 01:17:03;;;;;;;9.25;5.07;;;;;;;7.57;55.46;99753.94;5091231;28;20402;-48
2023/11/23 01:19:29;;;;;;;4.85;4.10;;;;;;;7.54;55.66;99749.81;5092435;28;20044;-49
2023/11/23 01:21:54;;;;;;;6.43;4.50;;;;;;;7.62;55.56;99754.28;5091234;28;20135;-48
2023/11/23 01:24:20;;;;;;;5.53;4.05;;;;;;;7.52;55.10;99751.78;5092460;28;20070;-48
2023/11/23 01:26:46;;;;;;;8.57;4.22;;;;;;;7.33;55.43;99757.22;5092433;28;20022;-48
2023/11/23 01:29:11;;;;;;;8.77;5.38;;;;;;;7.22;56.56;99752.22;5092434;28;20032;-48
2023/11/23 01:31:38;;;;;;;9.98;4.28;;;;;;;7.36;57.05;99754.28;5091038;28;20111;-49
2023/11/23 01:34:04;;;;;;;7.68;4.38;;;;;;;7.66;56.82;99753.00;5092269;28;20024;-49
2023/11/23 01:36:30;;;;;;;7.22;4.30;;;;;;;8.02;56.50;99752.03;5090715;28;20058;-49
2023/11/23 01:38:55;;;;;;;6.45;4.72;;;;;;;8.24;54.73;99750.66;5092313;28;20453;-49
2023/11/23 01:41:22;;;;;;;7.35;4.65;;;;;;;7.93;53.81;99759.84;5092223;28;20020;-48
2023/11/23 01:43:48;;;;;;;9.27;8.23;;;;;;;7.55;55.20;99764.53;5092206;28;20031;-48
2023/11/23 01:46:14;;;;;;;7.57;4.82;;;;;;;7.54;55.96;99770.72;5092106;28;20028;-48
2023/11/23 01:48:42;;;;;;;18.70;16.83;;;;;;;7.46;56.19;99775.91;5092168;28;20024;-48
2023/11/23 01:51:12;;;;;;;7.80;4.70;;;;;;;7.45;57.17;99771.66;5092036;28;20514;-48
2023/11/23 01:53:39;;;;;;;9.80;8.80;;;;;;;7.43;57.66;99780.63;5092044;28;20107;-49
2023/11/23 01:56:08;;;;;;;5.57;4.60;;;;;;;7.59;58.05;99778.13;5091874;28;20016;-49
2023/11/23 01:58:33;;;;;;;10.63;9.52;;;;;;;7.68;56.47;99782.41;5091949;28;20476;-48
2023/11/23 02:01:00;;;;;;;6.55;4.88;;;;;;;7.58;55.52;99787.72;5090613;28;20551;-48
2023/11/23 02:03:26;;;;;;;9.65;6.47;;;;;;;7.16;56.00;99783.22;5092159;28;20058;-48
2023/11/23 02:05:52;;;;;;;82.15;59.28;;;;;;;6.92;57.24;99776.00;5091855;28;20028;-48
2023/11/23 02:08:17;;;;;;;184.80;155.98;;;;;;;6.93;57.78;99782.03;5091828;28;20024;-48
2023/11/23 02:10:43;;;;;;;325.40;243.25;;;;;;;6.96;58.88;99760.84;5091788;28;20099;-49
2023/11/23 02:13:09;;;;;;;21.20;18.65;;;;;;;7.09;57.71;99763.09;5091816;28;20551;-48
2023/11/23 02:15:35;;;;;;;10.63;7.15;;;;;;;6.87;57.47;99761.75;5091664;28;20539;-49
2023/11/23 02:18:08;;;;;;;42.97;24.08;;;;;;;6.74;59.42;99756.88;5091810;28;20020;-48
2023/11/23 02:20:34;;;;;;;24.25;18.63;;;;;;;7.01;58.13;99758.59;5090237;28;20055;-48
2023/11/23 02:23:00;;;;;;;390.30;318.92;;;;;;;6.96;58.31;99760.84;5091758;28;20069;-48
2023/11/23 02:25:26;;;;;;;11.27;9.05;;;;;;;7.00;58.48;99763.00;5091636;28;20032;-48
2023/11/23 02:27:52;;;;;;;8.93;6.63;;;;;;;6.97;58.48;99765.09;5091924;28;20016;-48
2023/11/23 02:30:22;;;;;;;7.90;5.43;;;;;;;7.00;59.10;99765.63;5091649;28;20031;-48
2023/11/23 02:32:50;;;;;;;7.82;5.38;;;;;;;7.22;57.98;99766.09;5090342;28;20059;-48
2023/11/23 02:35:19;;;;;;;7.90;6.22;;;;;;;7.12;57.86;99763.59;5091462;28;20032;-48
2023/11/23 02:37:45;;;;;;;8.05;5.07;;;;;;;7.12;58.08;99763.59;5091799;28;20023;-48
2023/11/23 02:40:11;;;;;;;12.35;6.70;;;;;;;7.26;58.26;99771.84;5090316;28;20024;-48
2023/11/23 02:42:38;;;;;;;9.48;4.95;;;;;;;7.26;57.89;99767.44;5091549;28;20377;-48
2023/11/23 02:45:05;;;;;;;6.38;5.05;;;;;;;7.22;57.90;99771.31;5090530;28;20028;-48
2023/11/23 02:47:31;;;;;;;13.38;8.68;;;;;;;7.38;58.22;99766.25;5091495;28;20448;-48
2023/11/23 02:49:57;;;;;;;10.77;5.70;;;;;;;7.39;57.52;99767.88;5094081;28;20028;-48
2023/11/23 02:52:22;;;;;;;9.20;5.47;;;;;;;7.32;57.05;99756.38;5095377;28;20090;-48
2023/11/23 02:54:48;;;;;;;10.80;6.03;;;;;;;7.05;57.15;99769.56;5093928;28;20115;-48
2023/11/23 02:57:14;;;;;;;8.68;5.95;;;;;;;6.85;57.46;99764.50;5095228;28;20169;-48
2023/11/23 02:59:40;;;;;;;6.57;5.20;;;;;;;6.66;58.39;99769.84;5095276;28;20604;-48
2023/11/23 03:02:05;;;;;;;16.95;8.68;;;;;;;6.71;58.61;99770.25;5095151;28;20020;-48
2023/11/23 03:04:31;;;;;;;8.35;5.50;;;;;;;6.76;58.43;99760.16;5093790;28;20107;-48
2023/11/23 03:06:57;;;;;;;6.65;5.90;;;;;;;6.82;59.00;99769.19;5093783;28;20027;-48
2023/11/23 03:09:23;;;;;;;7.53;5.38;;;;;;;6.93;58.40;99769.78;5093683;28;20516;-48
2023/11/23 03:11:49;;;;;;;6.15;4.93;;;;;;;6.80;58.23;99764.97;5095006;28;20021;-48
2023/11/23 03:14:15;;;;;;;9.80;5.57;;;;;;;6.85;57.89;99769.72;5094813;28;20043;-48
2023/11/23 03:16:42;;;;;;;8.63;5.53;;;;;;;6.60;57.98;99782.53;5094881;28;20389;-48
2023/11/23 03:19:08;;;;;;;11.70;5.78;;;;;;;6.50;59.55;99780.94;5093304;28;20055;-48
2023/11/23 03:21:34;;;;;;;6.80;5.47;;;;;;;6.50;59.20;99784.38;5094847;28;20111;-48
2023/11/23 03:24:00;;;;;;;6.82;5.68;;;;;;;6.40;59.68;99783.63;5093465;28;20111;-48
2023/11/23 03:26:26;;;;;;;7.32;5.95;;;;;;;6.39;59.15;99793.22;5094680;28;20024;-48
2023/11/23 03:28:52;;;;;;;9.05;6.05;;;;;;;6.15;59.73;99801.56;5094733;28;20028;-48
2023/11/23 03:31:18;;;;;;;9.80;7.28;;;;;;;5.94;60.39;99799.16;5093328;28;20050;-48
2023/11/23 03:33:44;;;;;;;9.55;6.30;;;;;;;6.03;60.97;99796.69;5093294;28;20024;-48
2023/11/23 03:36:09;;;;;;;13.88;5.35;;;;;;;6.18;61.65;99787.44;5094457;28;20385;-48
2023/11/23 03:38:37;;;;;;;12.82;6.00;;;;;;;6.29;61.25;99789.03;5094424;28;20073;-48
2023/11/23 03:41:04;;;;;;;9.00;6.20;;;;;;;6.32;60.13;99788.75;5093090;28;20407;-48
2023/11/23 03:43:29;;;;;;;11.48;7.00;;;;;;;6.27;60.70;99783.13;5094407;28;20077;-48
2023/11/23 03:45:55;;;;;;;9.25;6.28;;;;;;;6.22;60.82;99788.78;5094291;28;20405;-48
2023/11/23 03:48:22;;;;;;;7.95;6.38;;;;;;;6.25;60.87;99792.91;5094268;28;20032;-48
2023/11/23 03:50:48;;;;;;;6.72;5.45;;;;;;;6.47;61.06;99791.69;5094267;28;20133;-48
2023/11/23 03:53:14;;;;;;;8.57;5.72;;;;;;;6.51;60.33;99798.25;5094433;28;20607;-48
2023/11/23 03:55:39;;;;;;;8.55;6.20;;;;;;;6.43;60.03;99796.34;5092737;28;20028;-48
2023/11/23 03:58:05;;;;;;;8.63;6.68;;;;;;;6.29;60.33;99782.03;5092613;28;20024;-48
2023/11/23 04:00:33;;;;;;;7.65;6.35;;;;;;;6.36;60.56;99790.09;5094033;28;20023;-48
2023/11/23 04:02:59;;;;;;;8.85;5.90;;;;;;;6.61;60.59;99791.19;5094044;28;20040;-48
2023/11/23 04:05:25;;;;;;;14.15;9.82;;;;;;;6.53;59.45;99791.91;5092633;28;20048;-48
2023/11/23 04:07:51;;;;;;;7.43;5.65;;;;;;;6.56;60.68;99788.16;5093964;28;20115;-48
2023/11/23 04:10:17;;;;;;;11.98;6.55;;;;;;;6.60;60.06;99795.56;5093800;28;20081;-48
2023/11/23 04:12:43;;;;;;;10.00;6.28;;;;;;;6.51;59.44;99793.84;5093739;28;20036;-48
2023/11/23 04:15:10;;;;;;;7.93;6.28;;;;;;;6.50;60.05;99801.81;5093708;28;20018;-48
2023/11/23 04:17:36;;;;;;;12.25;6.38;;;;;;;6.35;59.79;99802.28;5093683;28;20078;-48
2023/11/23 04:20:02;;;;;;;8.20;6.00;;;;;;;6.18;59.95;99809.13;5087672;28;20056;-48
2023/11/23 04:22:28;;;;;;;9.75;6.60;;;;;;;6.05;60.89;99802.59;5093630;28;20563;-48
2023/11/23 04:24:54;;;;;;;8.18;7.18;;;;;;;5.97;60.97;99808.50;5093599;28;20036;-48
2023/11/23 04:27:20;;;;;;;7.40;6.32;;;;;;;5.88;61.68;99811.94;5093541;28;20031;-48
2023/11/23 04:29:46;;;;;;;11.35;6.63;;;;;;;5.89;61.92;99803.97;5092207;28;20031;-48
2023/11/23 04:32:12;;;;;;;7.85;6.25;;;;;;;6.07;62.50;99795.44;5093397;28;20052;-48
2023/11/23 04:34:37;;;;;;;7.55;6.68;;;;;;;6.28;62.44;99803.00;5093354;28;20056;-48
2023/11/23 04:37:04;;;;;;;8.25;6.05;;;;;;;6.57;61.64;99793.25;5093278;28;20025;-48
2023/11/23 04:39:30;;;;;;;13.57;6.95;;;;;;;6.60;61.19;99797.38;5093323;28;20076;-48
2023/11/23 04:41:56;;;;;;;23.02;7.10;;;;;;;6.55;61.39;99792.56;5093282;28;20020;-48
2023/11/23 04:44:22;;;;;;;30.90;7.13;;;;;;;6.62;60.93;99792.81;5093221;28;20500;-48
2023/11/23 04:46:48;;;;;;;51.03;8.02;;;;;;;6.63;59.68;99793.66;5093126;28;20436;-48
2023/11/23 04:49:14;;;;;;;39.03;8.32;;;;;;;6.39;60.05;99795.00;5091768;28;20031;-48
2023/11/23 04:51:40;;;;;;;34.78;8.75;;;;;;;6.12;59.94;99796.66;5093067;28;20020;-48
2023/11/23 04:54:06;;;;;;;51.50;9.32;;;;;;;6.00;60.53;99808.22;5091683;28;20150;-48
2023/11/23 04:56:32;;;;;;;23.27;7.53;;;;;;;5.87;60.86;99805.91;5091635;28;20671;-48
2023/11/23 04:58:58;;;;;;;27.92;7.60;;;;;;;5.62;60.98;99809.97;5092960;28;20038;-48
2023/11/23 05:01:24;;;;;;;19.23;7.40;;;;;;;5.39;61.42;99809.44;5092829;28;20485;-48
2023/11/23 05:03:49;;;;;;;27.05;7.15;;;;;;;5.34;62.46;99812.47;5091571;28;20089;-48
2023/11/23 05:06:15;;;;;;;24.42;7.53;;;;;;;5.38;62.92;99815.63;5092815;28;20524;-48
2023/11/23 05:08:42;;;;;;;25.65;8.38;;;;;;;5.61;63.66;99808.28;5091455;28;20440;-48
2023/11/23 05:11:08;;;;;;;21.75;8.32;;;;;;;5.78;63.16;99818.00;5092130;28;20516;-48
2023/11/23 05:13:34;;;;;;;10.18;7.70;;;;;;;5.87;63.16;99813.72;5091388;28;20028;-48
2023/11/23 05:16:00;;;;;;;12.88;7.70;;;;;;;5.91;62.57;99804.66;5092444;28;20490;-48
2023/11/23 05:18:27;;;;;;;14.23;7.60;;;;;;;5.90;62.46;99803.03;5092653;28;20035;-48
2023/11/23 05:20:53;;;;;;;15.32;7.35;;;;;;;5.92;62.20;99808.09;5092336;28;20071;-48
2023/11/23 05:23:19;;;;;;;12.73;7.35;;;;;;;5.94;62.17;99806.16;5092457;28;20490;-48
2023/11/23 05:25:44;;;;;;;16.23;8.55;;;;;;;5.92;62.74;99814.13;5092443;28;20032;-48
2023/11/23 05:28:11;;;;;;;20.48;9.50;;;;;;;5.91;62.01;99816.88;5092474;28;20058;-48
2023/11/23 05:30:38;;;;;;;13.68;7.65;;;;;;;5.91;62.02;99812.47;5092289;28;20517;-48
2023/11/23 05:33:04;;;;;;;12.07;7.25;;;;;;;5.97;61.93;99813.72;5092292;28;20016;-48
2023/11/23 05:35:31;;;;;;;17.33;7.68;;;;;;;5.84;62.02;99823.63;5090905;28;20443;-48
2023/11/23 05:37:57;;;;;;;25.50;14.15;;;;;;;5.86;62.78;99824.28;5090951;28;20047;-48
2023/11/23 05:40:23;;;;;;;21.98;7.93;;;;;;;6.00;63.06;99824.69;5090834;28;20516;-48
2023/11/23 05:42:50;;;;;;;14.27;7.88;;;;;;;6.09;62.17;99824.78;5092228;28;20441;-48
2023/11/23 05:45:19;;;;;;;24.40;10.98;;;;;;;5.98;61.50;99826.59;5092178;28;20035;-48
2023/11/23 05:47:46;;;;;;;15.85;9.05;;;;;;;5.86;61.88;99826.91;5092166;28;20150;-48
2023/11/23 05:50:12;;;;;;;14.32;8.57;;;;;;;5.91;63.74;99832.50;5092040;28;20060;-48
2023/11/23 05:52:38;;;;;;;18.98;8.98;;;;;;;6.21;62.45;99844.50;5092084;28;20058;-48
2023/11/23 05:55:05;;;;;;;9.68;8.32;;;;;;;6.15;62.21;99848.47;5091936;28;20022;-48
2023/11/23 05:57:32;;;;;;;11.48;8.38;;;;;;;6.12;62.16;99859.22;5091967;28;20490;-48
2023/11/23 05:59:57;;;;;;;11.10;8.15;;;;;;;6.19;61.34;99854.25;5091944;28;20069;-48
2023/11/23 06:02:23;;;;;;;14.50;8.20;;;;;;;5.92;62.14;99862.81;5091828;28;20024;-48
2023/11/23 06:04:49;;;;;;;17.60;9.85;;;;;;;5.88;62.29;99862.25;5091864;28;20028;-48
2023/11/23 06:07:15;;;;;;;12.93;9.40;;;;;;;5.80;61.83;99860.34;5090655;28;20389;-48
2023/11/23 06:09:42;;;;;;;16.50;9.30;;;;;;;5.59;62.36;99863.16;5091879;28;20028;-48
2023/11/23 06:12:08;;;;;;;17.60;9.80;;;;;;;5.46;62.01;99865.19;5090524;28;20074;-48
2023/11/23 06:14:37;;;;;;;24.83;10.77;;;;;;;5.48;62.64;99865.06;5091734;28;20024;-48
2023/11/23 06:17:14;;;;;;;25.27;9.30;;;;;;;5.63;63.35;99866.28;5091771;28;20052;-48
2023/11/23 06:19:41;;;;;;;37.38;10.88;;;;;;;5.78;62.40;99872.69;5091555;28;20113;-48
2023/11/23 06:22:07;;;;;;;31.38;9.50;;;;;;;5.72;62.81;99854.22;5092466;28;20016;-48
2023/11/23 06:24:33;;;;;;;24.20;9.52;;;;;;;5.69;62.09;99860.50;5095981;28;20024;-48
2023/11/23 06:26:58;;;;;;;13.10;8.85;;;;;;;5.60;62.28;99861.34;5096134;28;20031;-48
2023/11/23 06:29:24;;;;;;;21.90;11.32;;;;;;;5.42;62.69;99868.22;5094629;28;20535;-48
2023/11/23 06:31:50;;;;;;;38.40;10.15;;;;;;;5.30;63.64;99864.94;5095820;28;20069;-48
2023/11/23 06:34:16;;;;;;;19.48;10.93;;;;;;;5.36;63.79;99867.00;5095687;28;20081;-48
2023/11/23 06:36:42;;;;;;;34.85;10.50;;;;;;;5.45;64.37;99862.72;5095732;28;20027;-48
2023/11/23 06:39:11;;;;;;;23.48;9.52;;;;;;;5.65;64.05;99864.34;5095622;28;20016;-48
2023/11/23 06:41:37;;;;;;;22.90;9.77;;;;;;;5.70;63.25;99875.19;5094284;28;20032;-48
2023/11/23 06:44:03;;;;;;;23.13;9.65;;;;;;;5.87;63.29;99870.22;5094400;28;20024;-48
2023/11/23 06:46:29;;;;;;;21.33;11.10;;;;;;;5.87;62.95;99870.22;5094179;28;20020;-48
2023/11/23 06:48:56;;;;;;;19.05;12.02;;;;;;;5.75;61.93;99865.16;5095479;28;20103;-48
2023/11/23 06:51:21;;;;;;;20.88;9.35;;;;;;;5.61;62.72;99868.19;5095420;28;20016;-48
2023/11/23 06:53:47;;;;;;;17.45;10.23;;;;;;;5.60;62.89;99875.19;5094343;28;20043;-48
2023/11/23 06:56:14;;;;;;;17.98;9.65;;;;;;;5.67;62.67;99870.22;5095191;28;20154;-48
2023/11/23 06:58:47;;;;;;;21.63;11.07;;;;;;;5.82;63.22;99870.66;5093972;28;20020;-48
2023/11/23 07:01:14;;;;;;;19.52;11.35;;;;;;;5.89;62.79;99871.72;5095274;28;20020;-48
2023/11/23 07:03:41;;;;;;;19.17;10.32;;;;;;;5.90;63.02;99864.75;5093896;28;20047;-48
2023/11/23 07:06:08;;;;;;;24.45;11.10;;;;;;;5.71;63.02;99865.56;5095051;28;20028;-48
2023/11/23 07:08:39;;;;;;;29.63;14.98;;;;;;;5.71;63.97;99871.59;5093746;28;20497;-48
2023/11/23 07:11:05;;;;;;;23.85;12.70;;;;;;;5.99;63.41;99861.28;5095053;28;20034;-48
2023/11/23 07:13:31;;;;;;;17.65;11.23;;;;;;;6.27;62.60;99869.16;5095056;28;20020;-48
2023/11/23 07:16:02;;;;;;;24.92;19.30;;;;;;;6.22;62.18;99871.38;5094836;28;20485;-48
2023/11/23 07:18:28;;;;;;;24.42;13.93;;;;;;;6.10;61.67;99874.16;5094992;28;20070;-48
2023/11/23 07:20:55;;;;;;;19.92;11.68;;;;;;;6.00;61.87;99878.59;5094697;28;20535;-48
2023/11/23 07:23:22;;;;;;;12.93;9.55;;;;;;;5.98;62.65;99876.13;5093460;28;20025;-48
2023/11/23 07:25:48;;;;;;;375.92;311.02;;;;;;;5.90;61.91;99870.75;5093770;28;20423;-48
2023/11/23 07:28:14;;;;;;;45.67;30.08;;;;;;;5.78;62.71;99874.50;5094623;28;20119;-48
2023/11/23 07:30:43;;;;;;;15.13;11.20;;;;;;;5.74;62.33;99866.13;5093368;28;20035;-48
2023/11/23 07:33:09;;;;;;;19.80;10.75;;;;;;;5.63;62.49;99876.69;5092773;28;20502;-48
2023/11/23 07:35:35;;;;;;;17.67;10.68;;;;;;;5.55;62.91;99879.16;5094492;28;20028;-48
2023/11/23 07:38:03;;;;;;;16.75;11.57;;;;;;;5.53;63.17;99876.72;5094460;28;20020;-48
2023/11/23 07:40:29;;;;;;;19.77;10.52;;;;;;;5.61;63.68;99878.59;5094739;28;20024;-48
2023/11/23 07:42:54;;;;;;;17.08;10.82;;;;;;;5.74;63.75;99875.72;5093100;28;20052;-48
2023/11/23 07:45:20;;;;;;;22.25;11.20;;;;;;;5.80;62.89;99881.19;5092985;28;20118;-48
2023/11/23 07:47:46;;;;;;;29.38;12.10;;;;;;;5.66;63.10;99880.81;5094410;28;20024;-48
2023/11/23 07:50:16;;;;;;;28.92;11.82;;;;;;;5.68;62.70;99889.31;5094138;28;20031;-48
2023/11/23 07:52:43;;;;;;;31.17;11.73;;;;;;;5.67;62.86;99893.69;5094272;28;20020;-48
2023/11/23 07:55:10;;;;;;;25.38;11.10;;;;;;;5.71;63.41;99889.03;5094102;28;20126;-48
2023/11/23 07:57:36;;;;;;;23.77;11.43;;;;;;;5.65;63.22;99879.97;5094098;28;20111;-48
2023/11/23 08:00:04;;;;;;;16.70;10.82;;;;;;;5.67;63.01;99892.84;5094104;28;20032;-48
2023/11/23 08:02:31;;;;;;;17.17;10.48;;;;;;;5.63;62.36;99886.28;5094023;28;20031;-48
2023/11/23 08:04:57;;;;;;;18.48;10.52;;;;;;;5.57;63.40;99882.44;5094037;28;20500;-48
2023/11/23 08:07:24;;;;;;;19.20;10.20;;;;;;;5.64;63.32;99890.56;5092758;28;20035;-48
2023/11/23 08:09:51;;;;;;;21.77;11.30;;;;;;;5.66;63.27;99879.03;5075957;28;20069;-48
2023/11/23 08:12:18;;;;;;;19.73;10.68;;;;;;;6.07;64.14;99884.03;5094083;28;20024;-48
2023/11/23 08:14:44;;;;;;;26.27;11.13;;;;;;;6.39;62.38;99886.28;5093960;28;20397;-48
2023/11/23 08:17:11;;;;;;;24.92;12.30;;;;;;;6.33;61.61;99885.03;5093683;28;20023;-48
2023/11/23 08:19:37;;;;;;;17.23;10.60;;;;;;;6.30;62.54;99895.78;5093478;28;20105;-48
2023/11/23 08:22:07;;;;;;;22.60;11.68;;;;;;;6.31;61.78;99896.59;5093653;28;20024;-48
2023/11/23 08:24:33;;;;;;;20.88;11.57;;;;;;;6.15;61.76;99900.59;5093632;28;20028;-48
2023/11/23 08:26:59;;;;;;;18.65;11.10;;;;;;;6.12;62.43;99906.13;5093548;28;20026;-48
2023/11/23 08:29:28;;;;;;;19.20;12.00;;;;;;;6.02;62.08;99902.72;5093570;28;20028;-48
2023/11/23 08:31:53;;;;;;;15.63;11.30;;;;;;;5.92;62.42;99904.50;5093496;28;20028;-48
2023/11/23 08:34:19;;;;;;;16.58;10.90;;;;;;;6.09;62.45;99905.56;5093338;28;20047;-48
2023/11/23 08:36:45;;;;;;;16.38;10.02;;;;;;;6.22;62.63;99898.28;5093304;28;20020;-48
2023/11/23 08:39:13;;;;;;;12.88;9.85;;;;;;;6.34;62.04;99902.34;5091965;28;20020;-48
2023/11/23 08:41:39;;;;;;;24.33;10.45;;;;;;;6.38;61.91;99911.53;5093266;28;20016;-48
2023/11/23 08:44:05;;;;;;;16.73;10.82;;;;;;;6.38;61.46;99913.31;5092977;28;20108;-48
2023/11/23 08:46:35;;;;;;;21.77;9.80;;;;;;;6.43;62.15;99921.53;5092817;28;20375;-48
2023/11/23 08:49:01;;;;;;;14.45;9.98;;;;;;;6.51;61.52;99916.41;5093431;28;20433;-48
2023/11/23 08:51:28;;;;;;;16.92;10.07;;;;;;;6.47;61.50;99925.47;5093062;28;20028;-48
2023/11/23 08:53:55;;;;;;;15.90;11.98;;;;;;;6.67;62.54;99922.81;5093005;28;20032;-48
2023/11/23 08:56:20;;;;;;;14.13;10.20;;;;;;;6.82;61.24;99918.72;5091784;28;20024;-48
2023/11/23 08:58:46;;;;;;;14.50;9.63;;;;;;;6.94;61.19;99912.38;5093021;28;20490;-48
2023/11/23 09:01:12;;;;;;;15.85;8.88;;;;;;;7.14;61.16;99913.06;5091680;28;20393;-48
2023/11/23 09:03:38;;;;;;;16.05;9.90;;;;;;;7.08;59.57;99920.66;5092965;28;20028;-48
2023/11/23 09:06:04;;;;;;;13.60;9.63;;;;;;;6.84;60.54;99914.22;5092768;28;20489;-48
2023/11/23 09:08:29;;;;;;;14.38;9.35;;;;;;;6.85;60.42;99920.25;5091638;28;20107;-48
2023/11/23 09:10:55;;;;;;;13.55;9.75;;;;;;;6.89;60.89;99919.00;5092751;28;20028;-48
2023/11/23 09:13:22;;;;;;;15.73;9.48;;;;;;;6.72;60.25;99916.19;5092705;28;20383;-48
2023/11/23 09:15:48;;;;;;;20.67;9.98;;;;;;;6.85;61.68;99917.63;5091348;28;20023;-48
2023/11/23 09:18:14;;;;;;;19.25;10.02;;;;;;;7.07;60.84;99903.38;5091294;28;20061;-48
2023/11/23 09:20:39;;;;;;;16.35;8.77;;;;;;;7.07;60.20;99903.38;5092380;28;20074;-48
2023/11/23 09:23:06;;;;;;;12.57;8.13;;;;;;;7.03;60.10;99897.59;5091206;28;20389;-48
2023/11/23 09:25:33;;;;;;;17.40;8.02;;;;;;;6.99;59.82;99901.47;5092506;28;20039;-48
2023/11/23 09:28:03;;;;;;;15.15;7.70;;;;;;;6.99;59.98;99915.34;5091150;28;20022;-48
2023/11/23 09:30:28;;;;;;;22.77;8.80;;;;;;;7.11;59.79;99910.75;5092423;28;20098;-48
2023/11/23 09:32:55;;;;;;;14.82;7.65;;;;;;;7.12;59.11;99914.16;5091145;28;20525;-48
2023/11/23 09:35:21;;;;;;;20.48;8.45;;;;;;;7.16;59.70;99913.75;5092240;28;20024;-48
2023/11/23 09:37:47;;;;;;;24.23;9.90;;;;;;;7.14;59.31;99918.28;5092529;28;20027;-48
2023/11/23 09:40:17;;;;;;;24.88;8.95;;;;;;;7.06;58.84;99930.41;5090966;28;20036;-48
2023/11/23 09:42:43;;;;;;;28.48;9.07;;;;;;;6.98;59.64;99918.09;5092218;28;20071;-48
2023/11/23 09:45:14;;;;;;;37.00;9.68;;;;;;;7.28;60.36;99929.19;5090855;28;20510;-48
2023/11/23 09:47:41;;;;;;;18.10;8.07;;;;;;;7.52;59.34;99921.56;5074437;28;20122;-48
2023/11/23 09:50:09;;;;;;;25.90;8.85;;;;;;;7.66;58.29;99925.44;5092041;28;20056;-48
2023/11/23 09:52:39;;;;;;;19.70;8.20;;;;;;;7.59;58.14;99921.81;5092080;28;20039;-48
2023/11/23 09:55:08;;;;;;;16.10;8.07;;;;;;;7.50;58.45;99928.72;5091934;28;20027;-48
2023/11/23 09:57:35;;;;;;;9.38;6.40;;;;;;;7.51;57.61;99927.78;5091760;28;20035;-48
2023/11/23 10:00:09;;;;;;;12.07;6.85;;;;;;;7.37;58.38;99920.47;5091859;28;20047;-48
2023/11/23 10:02:36;;;;;;;11.55;7.97;;;;;;;7.46;58.54;99921.34;5092041;28;20107;-48
2023/11/23 10:05:05;;;;;;;17.33;8.43;;;;;;;7.55;58.30;99916.06;5091843;28;20036;-48
2023/11/23 10:07:32;;;;;;;21.33;7.05;;;;;;;7.73;58.27;99915.22;5091833;28;20031;-48
2023/11/23 10:09:58;;;;;;;11.82;6.25;;;;;;;7.90;56.98;99911.75;5091908;28;20028;-48
2023/11/23 10:12:26;;;;;;;10.13;7.18;;;;;;;7.87;56.06;99913.84;5090504;28;20028;-48
2023/11/23 10:14:53;;;;;;;17.02;7.47;;;;;;;7.71;56.60;99923.22;5091680;28;20158;-48
2023/11/23 10:17:18;;;;;;;11.23;7.35;;;;;;;7.78;56.99;99916.38;5091723;28;20026;-48
2023/11/23 10:19:44;;;;;;;19.95;9.27;;;;;;;7.92;56.81;99912.41;5091550;28;20032;-48
2023/11/23 10:22:10;;;;;;;13.35;7.65;;;;;;;8.15;56.82;99907.50;5091708;28;20066;-48
2023/11/23 10:24:49;;;;;;;20.20;8.23;;;;;;;8.43;55.94;99903.91;5091763;28;20020;-48
2023/11/23 10:27:20;;;;;;;17.02;8.70;;;;;;;8.67;55.42;99900.59;5091732;28;20113;-48
2023/11/23 10:29:46;;;;;;;21.40;13.85;;;;;;;8.89;54.70;99892.16;5090392;28;20028;-48
2023/11/23 10:32:15;;;;;;;14.02;10.60;;;;;;;8.98;54.13;99877.31;5091682;28;20051;-48
2023/11/23 10:34:42;;;;;;;33.83;19.65;;;;;;;9.11;54.53;99869.78;5091643;28;20038;-48
2023/11/23 10:37:09;;;;;;;21.75;14.48;;;;;;;9.45;54.37;99863.59;5090248;28;20029;-48
2023/11/23 10:39:35;;;;;;;37.28;31.25;;;;;;;9.75;53.65;99856.03;5091594;28;20016;-48
2023/11/23 10:42:03;;;;;;;241.50;195.57;;;;;;;10.17;53.32;99849.72;5091553;28;20024;-48
2023/11/23 10:44:29;;;;;;;26.10;18.38;;;;;;;10.77;51.81;99845.72;5091519;28;20016;-49
2023/11/23 10:47:03;;;;;;;86.95;70.25;;;;;;;11.07;51.32;99830.13;5091493;28;20028;-49
2023/11/23 10:49:35;;;;;;;61.70;45.13;;;;;;;11.23;50.62;99832.63;5091622;28;20056;-49
2023/11/23 10:52:02;;;;;;;80.45;55.55;;;;;;;11.17;49.91;99830.69;5091550;28;20039;-49
2023/11/23 10:54:28;;;;;;;34.65;20.73;;;;;;;10.74;49.73;99832.94;5091447;28;20016;-49
2023/11/23 10:56:57;;;;;;;130.20;100.38;;;;;;;10.70;51.00;99834.28;5091294;28;20024;-49
2023/11/23 10:59:24;;;;;;;28.75;21.65;;;;;;;10.90;50.79;99835.47;5091450;28;20405;-49
2023/11/23 11:01:54;;;;;;;18.52;10.63;;;;;;;11.09;50.94;99826.31;5090087;28;20028;-48
2023/11/23 11:04:21;;;;;;;15.40;10.32;;;;;;;11.08;50.61;99829.91;5091404;28;20034;-49
2023/11/23 11:06:47;;;;;;;21.63;11.27;;;;;;;11.38;51.35;99824.78;5089996;28;20036;-48
2023/11/23 11:09:16;;;;;;;22.25;10.40;;;;;;;11.65;49.51;99828.66;5093730;28;20028;-49
2023/11/23 11:11:44;;;;;;;13.77;9.85;;;;;;;11.69;49.05;99826.47;5095056;28;20028;-49
2023/11/23 11:14:13;;;;;;;16.52;10.23;;;;;;;11.42;48.57;99819.97;5095297;28;20098;-49
2023/11/23 11:16:39;;;;;;;42.47;28.02;;;;;;;11.39;48.98;99814.09;5094843;28;20047;-49
2023/11/23 11:19:07;;;;;;;16.38;13.52;;;;;;;11.38;48.13;99801.94;5094692;28;20502;-49
2023/11/23 11:21:48;;;;;;;17.33;10.38;;;;;;;11.21;48.38;99797.81;5094922;28;20032;-49
2023/11/23 11:24:23;;;;;;;16.52;10.60;;;;;;;11.19;49.07;99799.81;5094886;28;20063;-49
2023/11/23 11:26:50;;;;;;;25.25;9.73;;;;;;;11.12;48.80;99807.56;5094830;28;20089;-49
2023/11/23 11:29:19;;;;;;;13.27;9.45;;;;;;;11.33;48.07;99792.97;5093509;28;20497;-49